sensor_id;sensor_type;location;lat;lon;timestamp;temperature;humidity
7174;DHT22;3628;48.654;8.932;2023-05-16T00:01:38;12.70;99.90
7174;DHT22;3628;48.654;8.932;2023-05-16T00:04:03;12.60;99.90
7174;DHT22;3628;48.654;8.932;2023-05-16T00:06:30;12.50;99.90
7174;DHT22;3628;48.654;8.932;2023-05-16T00:08:56;12.50;99.90
7174;DHT22;3628;48.654;8.932;2023-05-16T00:11:21;12.40;99.90
7174;DHT22;3628;48.654;8.932;2023-05-16T00:13:47;12.40;99.90
7174;DHT22;3628;48.654;8.932;2023-05-16T00:16:13;12.40;99.90
7174;DHT22;3628;48.654;8.932;2023-05-16T00:18:39;12.40;99.90
7174;DHT22;3628;48.654;8.932;2023-05-16T00:21:05;12.40;99.90
7174;DHT22;3628;48.654;8.932;2023-05-16T00:23:31;12.30;99.90
7174;DHT22;3628;48.654;8.932;2023-05-16T00:25:57;12.30;99.90
7174;DHT22;3628;48.654;8.932;2023-05-16T00:28:22;12.30;99.90
7174;DHT22;3628;48.654;8.932;2023-05-16T00:30:48;12.30;99.90
7174;DHT22;3628;48.654;8.932;2023-05-16T00:33:13;12.30;99.90
7174;DHT22;3628;48.654;8.932;2023-05-16T00:35:39;12.20;99.90
7174;DHT22;3628;48.654;8.932;2023-05-16T00:38:05;12.20;99.90
7174;DHT22;3628;48.654;8.932;2023-05-16T00:40:31;12.10;99.90
7174;DHT22;3628;48.654;8.932;2023-05-16T00:42:57;12.10;99.90
7174;DHT22;3628;48.654;8.932;2023-05-16T00:45:22;12.00;99.90
7174;DHT22;3628;48.654;8.932;2023-05-16T00:47:49;12.00;99.90
7174;DHT22;3628;48.654;8.932;2023-05-16T00:50:15;12.00;99.90
7174;DHT22;3628;48.654;8.932;2023-05-16T00:52:41;12.00;99.90
7174;DHT22;3628;48.654;8.932;2023-05-16T00:55:07;11.90;99.90
7174;DHT22;3628;48.654;8.932;2023-05-16T00:57:36;11.90;99.90
7174;DHT22;3628;48.654;8.932;2023-05-16T01:00:02;11.90;99.90
7174;DHT22;3628;48.654;8.932;2023-05-16T01:02:27;12.00;99.90
7174;DHT22;3628;48.654;8.932;2023-05-16T01:04:54;12.00;99.90
7174;DHT22;3628;48.654;8.932;2023-05-16T01:07:21;12.00;99.90
7174;DHT22;3628;48.654;8.932;2023-05-16T01:09:46;12.00;99.90
7174;DHT22;3628;48.654;8.932;2023-05-16T01:12:18;12.10;99.90
7174;DHT22;3628;48.654;8.932;2023-05-16T01:15:07;12.00;99.90
7174;DHT22;3628;48.654;8.932;2023-05-16T01:17:46;11.90;99.90
7174;DHT22;3628;48.654;8.932;2023-05-16T01:20:31;11.90;99.90
7174;DHT22;3628;48.654;8.932;2023-05-16T01:28:13;11.80;99.90
7174;DHT22;3628;48.654;8.932;2023-05-16T01:30:40;11.80;99.90
7174;DHT22;3628;48.654;8.932;2023-05-16T01:33:06;11.80;99.90
7174;DHT22;3628;48.654;8.932;2023-05-16T01:35:32;11.70;99.90
7174;DHT22;3628;48.654;8.932;2023-05-16T01:43:34;11.70;99.90
7174;DHT22;3628;48.654;8.932;2023-05-16T01:46:07;11.60;99.90
7174;DHT22;3628;48.654;8.932;2023-05-16T01:49:16;11.50;99.90
7174;DHT22;3628;48.654;8.932;2023-05-16T01:51:50;11.50;99.90
7174;DHT22;3628;48.654;8.932;2023-05-16T01:54:18;11.50;99.90
7174;DHT22;3628;48.654;8.932;2023-05-16T01:56:52;11.40;99.90
7174;DHT22;3628;48.654;8.932;2023-05-16T01:59:19;11.40;99.90
7174;DHT22;3628;48.654;8.932;2023-05-16T02:01:46;11.30;99.90
7174;DHT22;3628;48.654;8.932;2023-05-16T02:04:12;11.30;99.90
7174;DHT22;3628;48.654;8.932;2023-05-16T02:06:39;11.30;99.90
7174;DHT22;3628;48.654;8.932;2023-05-16T02:09:05;11.30;99.90
7174;DHT22;3628;48.654;8.932;2023-05-16T02:11:31;11.20;99.90
7174;DHT22;3628;48.654;8.932;2023-05-16T02:13:56;11.20;99.90
7174;DHT22;3628;48.654;8.932;2023-05-16T02:16:22;11.20;99.90
7174;DHT22;3628;48.654;8.932;2023-05-16T02:18:47;11.20;99.90
7174;DHT22;3628;48.654;8.932;2023-05-16T02:21:13;11.10;99.90
7174;DHT22;3628;48.654;8.932;2023-05-16T02:23:39;11.10;99.90
7174;DHT22;3628;48.654;8.932;2023-05-16T02:26:04;11.10;99.90
7174;DHT22;3628;48.654;8.932;2023-05-16T02:28:30;11.10;99.90
7174;DHT22;3628;48.654;8.932;2023-05-16T02:30:59;11.10;99.90
7174;DHT22;3628;48.654;8.932;2023-05-16T02:33:26;11.10;99.90
7174;DHT22;3628;48.654;8.932;2023-05-16T02:35:52;11.10;99.90
7174;DHT22;3628;48.654;8.932;2023-05-16T02:38:18;11.00;99.90
7174;DHT22;3628;48.654;8.932;2023-05-16T02:40:46;11.00;99.90
7174;DHT22;3628;48.654;8.932;2023-05-16T02:43:12;11.00;99.90
7174;DHT22;3628;48.654;8.932;2023-05-16T02:45:37;11.00;99.90
7174;DHT22;3628;48.654;8.932;2023-05-16T02:48:03;10.90;99.90
7174;DHT22;3628;48.654;8.932;2023-05-16T02:50:28;10.90;99.90
7174;DHT22;3628;48.654;8.932;2023-05-16T02:52:54;11.00;99.90
7174;DHT22;3628;48.654;8.932;2023-05-16T02:55:20;10.90;99.90
7174;DHT22;3628;48.654;8.932;2023-05-16T02:57:45;11.00;99.90
7174;DHT22;3628;48.654;8.932;2023-05-16T03:00:11;11.00;99.90
7174;DHT22;3628;48.654;8.932;2023-05-16T03:02:37;10.90;99.90
7174;DHT22;3628;48.654;8.932;2023-05-16T03:05:03;10.90;99.90
7174;DHT22;3628;48.654;8.932;2023-05-16T03:07:30;10.90;99.90
7174;DHT22;3628;48.654;8.932;2023-05-16T03:09:56;10.90;99.90
7174;DHT22;3628;48.654;8.932;2023-05-16T03:12:21;10.90;99.90
7174;DHT22;3628;48.654;8.932;2023-05-16T03:14:47;10.90;99.90
7174;DHT22;3628;48.654;8.932;2023-05-16T03:17:12;10.80;99.90
7174;DHT22;3628;48.654;8.932;2023-05-16T03:19:38;10.90;99.90
7174;DHT22;3628;48.654;8.932;2023-05-16T03:22:03;10.80;99.90
7174;DHT22;3628;48.654;8.932;2023-05-16T03:24:29;10.90;99.90
7174;DHT22;3628;48.654;8.932;2023-05-16T03:26:55;10.80;99.90
7174;DHT22;3628;48.654;8.932;2023-05-16T03:29:20;10.80;99.90
7174;DHT22;3628;48.654;8.932;2023-05-16T03:31:46;10.80;99.90
7174;DHT22;3628;48.654;8.932;2023-05-16T03:34:11;10.80;99.90
7174;DHT22;3628;48.654;8.932;2023-05-16T03:36:38;10.90;99.90
7174;DHT22;3628;48.654;8.932;2023-05-16T03:39:04;10.80;99.90
7174;DHT22;3628;48.654;8.932;2023-05-16T03:41:29;10.90;99.90
7174;DHT22;3628;48.654;8.932;2023-05-16T03:43:55;10.90;99.90
7174;DHT22;3628;48.654;8.932;2023-05-16T03:46:21;10.80;99.90
7174;DHT22;3628;48.654;8.932;2023-05-16T03:48:46;10.80;99.90
7174;DHT22;3628;48.654;8.932;2023-05-16T03:51:12;10.80;99.90
7174;DHT22;3628;48.654;8.932;2023-05-16T03:53:37;10.80;99.90
7174;DHT22;3628;48.654;8.932;2023-05-16T03:56:03;10.80;99.90
7174;DHT22;3628;48.654;8.932;2023-05-16T03:58:28;10.80;99.90
7174;DHT22;3628;48.654;8.932;2023-05-16T04:00:54;10.80;99.90
7174;DHT22;3628;48.654;8.932;2023-05-16T04:03:19;10.80;99.90
7174;DHT22;3628;48.654;8.932;2023-05-16T04:05:53;10.80;99.90
7174;DHT22;3628;48.654;8.932;2023-05-16T04:08:18;10.80;99.90
7174;DHT22;3628;48.654;8.932;2023-05-16T04:10:44;10.80;99.90
7174;DHT22;3628;48.654;8.932;2023-05-16T04:13:09;10.80;99.90
7174;DHT22;3628;48.654;8.932;2023-05-16T04:15:35;10.90;99.90
7174;DHT22;3628;48.654;8.932;2023-05-16T04:18:01;10.90;99.90
7174;DHT22;3628;48.654;8.932;2023-05-16T04:20:26;10.90;99.90
7174;DHT22;3628;48.654;8.932;2023-05-16T04:22:52;10.80;99.90
7174;DHT22;3628;48.654;8.932;2023-05-16T04:25:18;10.90;99.90
7174;DHT22;3628;48.654;8.932;2023-05-16T04:27:43;10.90;99.90
7174;DHT22;3628;48.654;8.932;2023-05-16T04:30:09;10.90;99.90
7174;DHT22;3628;48.654;8.932;2023-05-16T04:32:36;10.90;99.90
7174;DHT22;3628;48.654;8.932;2023-05-16T04:35:02;10.90;99.90
7174;DHT22;3628;48.654;8.932;2023-05-16T04:37:28;10.90;99.90
7174;DHT22;3628;48.654;8.932;2023-05-16T04:39:53;10.90;99.90
7174;DHT22;3628;48.654;8.932;2023-05-16T04:42:19;10.90;99.90
7174;DHT22;3628;48.654;8.932;2023-05-16T04:44:44;10.90;99.90
7174;DHT22;3628;48.654;8.932;2023-05-16T04:47:12;10.90;99.90
7174;DHT22;3628;48.654;8.932;2023-05-16T04:49:38;10.90;99.90
7174;DHT22;3628;48.654;8.932;2023-05-16T04:52:05;10.90;99.90
7174;DHT22;3628;48.654;8.932;2023-05-16T04:54:32;10.90;99.90
7174;DHT22;3628;48.654;8.932;2023-05-16T04:56:58;10.90;99.90
7174;DHT22;3628;48.654;8.932;2023-05-16T04:59:24;10.90;99.90
7174;DHT22;3628;48.654;8.932;2023-05-16T05:01:49;10.90;99.90
7174;DHT22;3628;48.654;8.932;2023-05-16T05:04:15;11.00;99.90
7174;DHT22;3628;48.654;8.932;2023-05-16T05:06:42;11.00;99.90
7174;DHT22;3628;48.654;8.932;2023-05-16T05:09:08;11.00;99.90
7174;DHT22;3628;48.654;8.932;2023-05-16T05:11:34;11.00;99.90
7174;DHT22;3628;48.654;8.932;2023-05-16T05:14:00;11.00;99.90
7174;DHT22;3628;48.654;8.932;2023-05-16T05:16:25;11.00;99.90
7174;DHT22;3628;48.654;8.932;2023-05-16T05:18:51;11.00;99.90
7174;DHT22;3628;48.654;8.932;2023-05-16T05:21:17;11.00;99.90
7174;DHT22;3628;48.654;8.932;2023-05-16T05:23:44;11.00;99.90
7174;DHT22;3628;48.654;8.932;2023-05-16T05:26:10;11.00;99.90
7174;DHT22;3628;48.654;8.932;2023-05-16T05:28:36;11.00;99.90
7174;DHT22;3628;48.654;8.932;2023-05-16T05:31:03;11.00;99.90
7174;DHT22;3628;48.654;8.932;2023-05-16T05:33:29;11.00;99.90
7174;DHT22;3628;48.654;8.932;2023-05-16T05:35:55;11.00;99.90
7174;DHT22;3628;48.654;8.932;2023-05-16T05:38:21;11.00;99.90
7174;DHT22;3628;48.654;8.932;2023-05-16T05:40:47;11.00;99.90
7174;DHT22;3628;48.654;8.932;2023-05-16T05:43:14;11.00;99.90
7174;DHT22;3628;48.654;8.932;2023-05-16T05:45:40;11.00;99.90
7174;DHT22;3628;48.654;8.932;2023-05-16T05:48:06;11.00;99.90
7174;DHT22;3628;48.654;8.932;2023-05-16T05:50:32;11.10;99.90
7174;DHT22;3628;48.654;8.932;2023-05-16T05:52:57;11.00;99.90
7174;DHT22;3628;48.654;8.932;2023-05-16T05:55:23;11.00;99.90
7174;DHT22;3628;48.654;8.932;2023-05-16T05:57:49;11.00;99.90
7174;DHT22;3628;48.654;8.932;2023-05-16T06:00:14;11.00;99.90
7174;DHT22;3628;48.654;8.932;2023-05-16T06:02:40;11.00;99.90
7174;DHT22;3628;48.654;8.932;2023-05-16T06:05:06;11.00;99.90
7174;DHT22;3628;48.654;8.932;2023-05-16T06:07:32;11.00;99.90
7174;DHT22;3628;48.654;8.932;2023-05-16T06:09:58;11.00;99.90
7174;DHT22;3628;48.654;8.932;2023-05-16T06:12:24;11.00;99.90
7174;DHT22;3628;48.654;8.932;2023-05-16T06:14:49;11.00;99.90
7174;DHT22;3628;48.654;8.932;2023-05-16T06:17:15;11.10;99.90
7174;DHT22;3628;48.654;8.932;2023-05-16T06:19:40;11.00;99.90
7174;DHT22;3628;48.654;8.932;2023-05-16T06:22:06;11.00;99.90
7174;DHT22;3628;48.654;8.932;2023-05-16T06:24:31;11.00;99.90
7174;DHT22;3628;48.654;8.932;2023-05-16T06:26:57;11.00;99.90
7174;DHT22;3628;48.654;8.932;2023-05-16T06:29:22;11.00;99.90
7174;DHT22;3628;48.654;8.932;2023-05-16T06:31:48;11.00;99.90
7174;DHT22;3628;48.654;8.932;2023-05-16T06:34:14;10.90;99.90
7174;DHT22;3628;48.654;8.932;2023-05-16T06:36:39;10.90;99.90
7174;DHT22;3628;48.654;8.932;2023-05-16T06:39:05;10.80;99.90
7174;DHT22;3628;48.654;8.932;2023-05-16T06:41:31;10.80;99.90
7174;DHT22;3628;48.654;8.932;2023-05-16T06:43:56;10.90;99.90
7174;DHT22;3628;48.654;8.932;2023-05-16T06:46:22;10.90;99.90
7174;DHT22;3628;48.654;8.932;2023-05-16T06:48:47;10.90;99.90
7174;DHT22;3628;48.654;8.932;2023-05-16T06:51:13;10.90;99.90
7174;DHT22;3628;48.654;8.932;2023-05-16T06:53:38;11.00;99.90
7174;DHT22;3628;48.654;8.932;2023-05-16T06:56:04;11.00;99.90
7174;DHT22;3628;48.654;8.932;2023-05-16T06:58:29;11.00;99.90
7174;DHT22;3628;48.654;8.932;2023-05-16T07:00:55;11.10;99.90
7174;DHT22;3628;48.654;8.932;2023-05-16T07:03:21;11.10;99.90
7174;DHT22;3628;48.654;8.932;2023-05-16T07:05:46;11.10;99.90
7174;DHT22;3628;48.654;8.932;2023-05-16T07:08:12;11.10;99.90
7174;DHT22;3628;48.654;8.932;2023-05-16T07:10:40;11.10;99.90
7174;DHT22;3628;48.654;8.932;2023-05-16T07:13:06;11.00;99.90
7174;DHT22;3628;48.654;8.932;2023-05-16T07:15:32;11.00;99.90
7174;DHT22;3628;48.654;8.932;2023-05-16T07:17:57;11.00;99.90
7174;DHT22;3628;48.654;8.932;2023-05-16T07:20:24;10.90;99.90
7174;DHT22;3628;48.654;8.932;2023-05-16T07:22:49;10.90;99.90
7174;DHT22;3628;48.654;8.932;2023-05-16T07:25:15;10.80;99.90
7174;DHT22;3628;48.654;8.932;2023-05-16T07:27:41;10.80;99.90
7174;DHT22;3628;48.654;8.932;2023-05-16T07:30:09;10.80;99.90
7174;DHT22;3628;48.654;8.932;2023-05-16T07:32:35;10.80;99.90
7174;DHT22;3628;48.654;8.932;2023-05-16T07:35:02;10.80;99.90
7174;DHT22;3628;48.654;8.932;2023-05-16T07:37:28;10.80;99.90
7174;DHT22;3628;48.654;8.932;2023-05-16T07:39:54;10.80;99.90
7174;DHT22;3628;48.654;8.932;2023-05-16T07:42:20;10.80;99.90
7174;DHT22;3628;48.654;8.932;2023-05-16T07:44:45;10.70;99.90
7174;DHT22;3628;48.654;8.932;2023-05-16T07:47:11;10.60;99.90
7174;DHT22;3628;48.654;8.932;2023-05-16T07:49:36;10.60;99.90
7174;DHT22;3628;48.654;8.932;2023-05-16T07:52:02;10.50;99.90
7174;DHT22;3628;48.654;8.932;2023-05-16T07:54:28;10.60;99.90
7174;DHT22;3628;48.654;8.932;2023-05-16T07:56:53;10.60;99.90
7174;DHT22;3628;48.654;8.932;2023-05-16T07:59:19;10.60;99.90
7174;DHT22;3628;48.654;8.932;2023-05-16T08:01:45;10.60;99.90
7174;DHT22;3628;48.654;8.932;2023-05-16T08:04:10;10.70;99.90
7174;DHT22;3628;48.654;8.932;2023-05-16T08:06:36;10.70;99.90
7174;DHT22;3628;48.654;8.932;2023-05-16T08:09:01;10.80;99.90
7174;DHT22;3628;48.654;8.932;2023-05-16T08:11:27;10.80;99.90
7174;DHT22;3628;48.654;8.932;2023-05-16T08:13:53;10.80;99.90
7174;DHT22;3628;48.654;8.932;2023-05-16T08:16:18;10.90;99.90
7174;DHT22;3628;48.654;8.932;2023-05-16T08:18:44;11.00;99.90
7174;DHT22;3628;48.654;8.932;2023-05-16T08:21:10;11.00;99.90
7174;DHT22;3628;48.654;8.932;2023-05-16T08:23:35;11.10;99.90
7174;DHT22;3628;48.654;8.932;2023-05-16T08:26:01;11.10;99.90
7174;DHT22;3628;48.654;8.932;2023-05-16T08:28:28;11.00;99.90
7174;DHT22;3628;48.654;8.932;2023-05-16T08:30:53;11.00;99.90
7174;DHT22;3628;48.654;8.932;2023-05-16T08:33:19;11.00;99.90
7174;DHT22;3628;48.654;8.932;2023-05-16T08:35:45;11.10;99.90
7174;DHT22;3628;48.654;8.932;2023-05-16T08:38:13;11.00;99.90
7174;DHT22;3628;48.654;8.932;2023-05-16T08:40:39;11.00;99.90
7174;DHT22;3628;48.654;8.932;2023-05-16T08:43:05;11.00;99.90
7174;DHT22;3628;48.654;8.932;2023-05-16T08:45:31;11.00;99.90
7174;DHT22;3628;48.654;8.932;2023-05-16T08:47:59;11.00;99.90
7174;DHT22;3628;48.654;8.932;2023-05-16T08:50:25;11.00;99.90
7174;DHT22;3628;48.654;8.932;2023-05-16T08:52:55;11.00;99.90
7174;DHT22;3628;48.654;8.932;2023-05-16T08:55:22;11.00;99.90
7174;DHT22;3628;48.654;8.932;2023-05-16T08:57:49;10.90;99.90
7174;DHT22;3628;48.654;8.932;2023-05-16T09:00:16;10.90;99.90
7174;DHT22;3628;48.654;8.932;2023-05-16T09:02:43;10.90;99.90
7174;DHT22;3628;48.654;8.932;2023-05-16T09:05:13;11.00;99.90
7174;DHT22;3628;48.654;8.932;2023-05-16T09:07:40;11.00;99.90
7174;DHT22;3628;48.654;8.932;2023-05-16T09:10:06;11.10;99.90
7174;DHT22;3628;48.654;8.932;2023-05-16T09:12:33;11.00;99.90
7174;DHT22;3628;48.654;8.932;2023-05-16T09:15:03;11.10;99.90
7174;DHT22;3628;48.654;8.932;2023-05-16T09:17:37;11.10;99.90
7174;DHT22;3628;48.654;8.932;2023-05-16T09:20:10;11.10;99.90
7174;DHT22;3628;48.654;8.932;2023-05-16T09:22:36;11.10;99.90
7174;DHT22;3628;48.654;8.932;2023-05-16T09:25:02;11.20;99.90
7174;DHT22;3628;48.654;8.932;2023-05-16T09:27:30;11.20;99.90
7174;DHT22;3628;48.654;8.932;2023-05-16T09:29:57;11.30;99.90
7174;DHT22;3628;48.654;8.932;2023-05-16T09:32:23;11.40;99.90
7174;DHT22;3628;48.654;8.932;2023-05-16T09:34:52;11.40;99.90
7174;DHT22;3628;48.654;8.932;2023-05-16T09:37:18;11.50;99.90
7174;DHT22;3628;48.654;8.932;2023-05-16T09:39:51;11.70;99.90
7174;DHT22;3628;48.654;8.932;2023-05-16T09:42:18;11.70;99.90
7174;DHT22;3628;48.654;8.932;2023-05-16T09:44:51;11.90;99.90
7174;DHT22;3628;48.654;8.932;2023-05-16T09:47:18;11.90;99.90
7174;DHT22;3628;48.654;8.932;2023-05-16T09:49:45;12.00;99.90
7174;DHT22;3628;48.654;8.932;2023-05-16T09:52:11;12.10;99.90
7174;DHT22;3628;48.654;8.932;2023-05-16T09:54:37;12.10;99.90
7174;DHT22;3628;48.654;8.932;2023-05-16T09:57:03;12.30;99.90
7174;DHT22;3628;48.654;8.932;2023-05-16T09:59:29;12.30;99.90
7174;DHT22;3628;48.654;8.932;2023-05-16T10:01:57;12.40;99.90
7174;DHT22;3628;48.654;8.932;2023-05-16T10:04:26;12.30;99.90
7174;DHT22;3628;48.654;8.932;2023-05-16T10:06:53;12.40;99.90
7174;DHT22;3628;48.654;8.932;2023-05-16T10:09:20;12.50;99.90
7174;DHT22;3628;48.654;8.932;2023-05-16T10:11:47;12.60;99.90
7174;DHT22;3628;48.654;8.932;2023-05-16T10:14:17;12.60;99.90
7174;DHT22;3628;48.654;8.932;2023-05-16T10:16:46;12.60;99.90
7174;DHT22;3628;48.654;8.932;2023-05-16T10:19:16;12.40;99.90
7174;DHT22;3628;48.654;8.932;2023-05-16T10:21:47;12.20;99.90
7174;DHT22;3628;48.654;8.932;2023-05-16T10:24:25;12.20;99.90
7174;DHT22;3628;48.654;8.932;2023-05-16T10:26:53;12.00;99.90
7174;DHT22;3628;48.654;8.932;2023-05-16T10:29:19;11.90;99.90
7174;DHT22;3628;48.654;8.932;2023-05-16T10:31:46;11.90;99.90
7174;DHT22;3628;48.654;8.932;2023-05-16T10:34:13;11.80;99.90
7174;DHT22;3628;48.654;8.932;2023-05-16T10:36:39;11.90;99.90
7174;DHT22;3628;48.654;8.932;2023-05-16T10:39:05;12.10;99.90
7174;DHT22;3628;48.654;8.932;2023-05-16T10:41:33;12.20;99.90
7174;DHT22;3628;48.654;8.932;2023-05-16T10:43:59;12.40;99.90
7174;DHT22;3628;48.654;8.932;2023-05-16T10:46:26;12.60;99.90
7174;DHT22;3628;48.654;8.932;2023-05-16T10:48:53;12.80;99.90
7174;DHT22;3628;48.654;8.932;2023-05-16T10:53:50;13.00;99.90
7174;DHT22;3628;48.654;8.932;2023-05-16T10:56:22;13.00;99.90
7174;DHT22;3628;48.654;8.932;2023-05-16T10:58:48;12.90;99.90
7174;DHT22;3628;48.654;8.932;2023-05-16T11:03:59;12.60;99.90
7174;DHT22;3628;48.654;8.932;2023-05-16T11:06:34;12.50;99.90
7174;DHT22;3628;48.654;8.932;2023-05-16T11:14:23;12.70;99.90
7174;DHT22;3628;48.654;8.932;2023-05-16T11:25:03;12.70;99.90
7174;DHT22;3628;48.654;8.932;2023-05-16T11:32:33;12.40;99.90
7174;DHT22;3628;48.654;8.932;2023-05-16T11:34:59;12.30;99.90
7174;DHT22;3628;48.654;8.932;2023-05-16T11:37:26;12.10;99.90
7174;DHT22;3628;48.654;8.932;2023-05-16T11:39:52;12.00;99.90
7174;DHT22;3628;48.654;8.932;2023-05-16T11:42:18;11.90;99.90
7174;DHT22;3628;48.654;8.932;2023-05-16T11:44:44;11.80;99.90
7174;DHT22;3628;48.654;8.932;2023-05-16T11:47:10;11.80;99.90
7174;DHT22;3628;48.654;8.932;2023-05-16T11:49:36;11.80;99.90
7174;DHT22;3628;48.654;8.932;2023-05-16T11:52:03;11.70;99.90
7174;DHT22;3628;48.654;8.932;2023-05-16T11:54:29;11.70;99.90
7174;DHT22;3628;48.654;8.932;2023-05-16T11:56:54;11.70;99.90
7174;DHT22;3628;48.654;8.932;2023-05-16T11:59:20;11.70;99.90
7174;DHT22;3628;48.654;8.932;2023-05-16T12:01:46;11.70;99.90
7174;DHT22;3628;48.654;8.932;2023-05-16T12:04:14;11.60;99.90
7174;DHT22;3628;48.654;8.932;2023-05-16T12:06:41;11.60;99.90
7174;DHT22;3628;48.654;8.932;2023-05-16T12:09:13;11.70;99.90
7174;DHT22;3628;48.654;8.932;2023-05-16T12:11:40;11.70;99.90
7174;DHT22;3628;48.654;8.932;2023-05-16T12:14:07;11.60;99.90
7174;DHT22;3628;48.654;8.932;2023-05-16T12:16:34;11.60;99.90
7174;DHT22;3628;48.654;8.932;2023-05-16T12:19:04;11.60;99.90
7174;DHT22;3628;48.654;8.932;2023-05-16T12:21:33;11.60;99.90
7174;DHT22;3628;48.654;8.932;2023-05-16T12:23:59;11.60;99.90
7174;DHT22;3628;48.654;8.932;2023-05-16T12:26:26;11.60;99.90
7174;DHT22;3628;48.654;8.932;2023-05-16T12:28:56;11.60;99.90
7174;DHT22;3628;48.654;8.932;2023-05-16T12:31:25;11.60;99.90
7174;DHT22;3628;48.654;8.932;2023-05-16T12:33:55;11.70;99.90
7174;DHT22;3628;48.654;8.932;2023-05-16T12:36:21;11.60;99.90
7174;DHT22;3628;48.654;8.932;2023-05-16T12:38:48;11.50;99.90
7174;DHT22;3628;48.654;8.932;2023-05-16T12:41:20;11.30;99.90
7174;DHT22;3628;48.654;8.932;2023-05-16T12:43:47;11.30;99.90
7174;DHT22;3628;48.654;8.932;2023-05-16T12:46:13;11.20;99.90
7174;DHT22;3628;48.654;8.932;2023-05-16T12:48:39;11.10;99.90
7174;DHT22;3628;48.654;8.932;2023-05-16T12:51:16;10.90;99.90
7174;DHT22;3628;48.654;8.932;2023-05-16T12:53:43;10.90;99.90
7174;DHT22;3628;48.654;8.932;2023-05-16T12:56:10;10.90;99.90
7174;DHT22;3628;48.654;8.932;2023-05-16T12:58:36;10.90;99.90
7174;DHT22;3628;48.654;8.932;2023-05-16T13:01:02;10.80;99.90
7174;DHT22;3628;48.654;8.932;2023-05-16T13:03:28;10.70;99.90
7174;DHT22;3628;48.654;8.932;2023-05-16T13:05:54;10.60;99.90
7174;DHT22;3628;48.654;8.932;2023-05-16T13:08:20;10.50;99.90
7174;DHT22;3628;48.654;8.932;2023-05-16T13:10:46;10.50;99.90
7174;DHT22;3628;48.654;8.932;2023-05-16T13:13:11;10.40;99.90
7174;DHT22;3628;48.654;8.932;2023-05-16T13:15:38;10.40;99.90
7174;DHT22;3628;48.654;8.932;2023-05-16T13:18:03;10.30;99.90
7174;DHT22;3628;48.654;8.932;2023-05-16T13:20:29;10.20;99.90
7174;DHT22;3628;48.654;8.932;2023-05-16T13:22:55;10.20;99.90
7174;DHT22;3628;48.654;8.932;2023-05-16T13:25:20;10.20;99.90
7174;DHT22;3628;48.654;8.932;2023-05-16T13:27:46;10.20;99.90
7174;DHT22;3628;48.654;8.932;2023-05-16T13:30:13;10.30;99.90
7174;DHT22;3628;48.654;8.932;2023-05-16T13:32:39;10.40;99.90
7174;DHT22;3628;48.654;8.932;2023-05-16T13:35:06;10.40;99.90
7174;DHT22;3628;48.654;8.932;2023-05-16T13:37:31;10.50;99.90
7174;DHT22;3628;48.654;8.932;2023-05-16T13:39:57;10.60;99.90
7174;DHT22;3628;48.654;8.932;2023-05-16T13:42:23;10.70;99.90
7174;DHT22;3628;48.654;8.932;2023-05-16T13:44:48;10.70;99.90
7174;DHT22;3628;48.654;8.932;2023-05-16T13:47:14;10.70;99.90
7174;DHT22;3628;48.654;8.932;2023-05-16T13:49:40;10.70;99.90
7174;DHT22;3628;48.654;8.932;2023-05-16T13:52:06;10.60;99.90
7174;DHT22;3628;48.654;8.932;2023-05-16T13:54:31;10.70;99.90
7174;DHT22;3628;48.654;8.932;2023-05-16T13:56:57;10.70;99.90
7174;DHT22;3628;48.654;8.932;2023-05-16T13:59:23;10.70;99.90
7174;DHT22;3628;48.654;8.932;2023-05-16T14:01:49;10.70;99.90
7174;DHT22;3628;48.654;8.932;2023-05-16T14:04:15;10.70;99.90
7174;DHT22;3628;48.654;8.932;2023-05-16T14:06:40;10.80;99.90
7174;DHT22;3628;48.654;8.932;2023-05-16T14:09:06;10.80;99.90
7174;DHT22;3628;48.654;8.932;2023-05-16T14:11:32;10.80;99.90
7174;DHT22;3628;48.654;8.932;2023-05-16T14:13:58;10.80;99.90
7174;DHT22;3628;48.654;8.932;2023-05-16T14:16:24;10.80;99.90
7174;DHT22;3628;48.654;8.932;2023-05-16T14:18:50;10.80;99.90
7174;DHT22;3628;48.654;8.932;2023-05-16T14:21:15;10.90;99.90
7174;DHT22;3628;48.654;8.932;2023-05-16T14:23:41;11.00;99.90
7174;DHT22;3628;48.654;8.932;2023-05-16T14:26:07;11.10;99.90
7174;DHT22;3628;48.654;8.932;2023-05-16T14:28:32;11.10;99.90
7174;DHT22;3628;48.654;8.932;2023-05-16T14:30:59;11.20;99.90
7174;DHT22;3628;48.654;8.932;2023-05-16T14:33:25;11.30;99.90
7174;DHT22;3628;48.654;8.932;2023-05-16T14:35:51;11.40;99.90
7174;DHT22;3628;48.654;8.932;2023-05-16T14:38:17;11.40;99.90
7174;DHT22;3628;48.654;8.932;2023-05-16T14:40:43;11.50;99.90
7174;DHT22;3628;48.654;8.932;2023-05-16T14:43:08;11.60;99.90
7174;DHT22;3628;48.654;8.932;2023-05-16T14:45:35;11.70;99.90
7174;DHT22;3628;48.654;8.932;2023-05-16T14:48:01;11.90;99.90
7174;DHT22;3628;48.654;8.932;2023-05-16T14:50:26;11.90;99.90
7174;DHT22;3628;48.654;8.932;2023-05-16T14:52:52;11.80;99.90
7174;DHT22;3628;48.654;8.932;2023-05-16T14:55:18;11.70;99.90
7174;DHT22;3628;48.654;8.932;2023-05-16T14:57:43;11.70;99.90
7174;DHT22;3628;48.654;8.932;2023-05-16T15:00:10;11.80;99.90
7174;DHT22;3628;48.654;8.932;2023-05-16T15:02:35;11.80;99.90
7174;DHT22;3628;48.654;8.932;2023-05-16T15:05:01;11.80;99.90
7174;DHT22;3628;48.654;8.932;2023-05-16T15:07:27;11.80;99.90
7174;DHT22;3628;48.654;8.932;2023-05-16T15:09:52;11.90;99.90
7174;DHT22;3628;48.654;8.932;2023-05-16T15:12:18;11.80;99.90
7174;DHT22;3628;48.654;8.932;2023-05-16T15:14:43;11.80;99.90
7174;DHT22;3628;48.654;8.932;2023-05-16T15:17:09;11.80;99.90
7174;DHT22;3628;48.654;8.932;2023-05-16T15:19:35;11.80;99.90
7174;DHT22;3628;48.654;8.932;2023-05-16T15:22:00;11.80;99.90
7174;DHT22;3628;48.654;8.932;2023-05-16T15:24:26;11.70;99.90
7174;DHT22;3628;48.654;8.932;2023-05-16T15:26:52;11.70;99.90
7174;DHT22;3628;48.654;8.932;2023-05-16T15:29:18;11.80;99.90
7174;DHT22;3628;48.654;8.932;2023-05-16T15:31:44;11.80;99.90
7174;DHT22;3628;48.654;8.932;2023-05-16T15:34:10;11.80;99.90
7174;DHT22;3628;48.654;8.932;2023-05-16T15:36:36;11.90;99.90
7174;DHT22;3628;48.654;8.932;2023-05-16T15:39:02;12.00;99.90
7174;DHT22;3628;48.654;8.932;2023-05-16T15:41:27;11.90;99.90
7174;DHT22;3628;48.654;8.932;2023-05-16T15:43:53;12.00;99.90
7174;DHT22;3628;48.654;8.932;2023-05-16T15:46:18;11.80;99.90
7174;DHT22;3628;48.654;8.932;2023-05-16T15:48:44;11.80;99.90
7174;DHT22;3628;48.654;8.932;2023-05-16T15:51:11;11.80;99.90
7174;DHT22;3628;48.654;8.932;2023-05-16T15:53:37;11.70;99.90
7174;DHT22;3628;48.654;8.932;2023-05-16T15:56:03;11.70;99.90
7174;DHT22;3628;48.654;8.932;2023-05-16T15:58:28;11.60;99.90
7174;DHT22;3628;48.654;8.932;2023-05-16T16:00:54;11.60;99.90
7174;DHT22;3628;48.654;8.932;2023-05-16T16:03:20;11.60;99.90
7174;DHT22;3628;48.654;8.932;2023-05-16T16:05:46;11.40;99.90
7174;DHT22;3628;48.654;8.932;2023-05-16T16:08:17;11.40;99.90
7174;DHT22;3628;48.654;8.932;2023-05-16T16:10:43;11.50;99.90
7174;DHT22;3628;48.654;8.932;2023-05-16T16:13:08;11.50;99.90
7174;DHT22;3628;48.654;8.932;2023-05-16T16:15:34;11.60;99.90
7174;DHT22;3628;48.654;8.932;2023-05-16T16:18:00;11.60;99.90
7174;DHT22;3628;48.654;8.932;2023-05-16T16:20:25;11.60;99.90
7174;DHT22;3628;48.654;8.932;2023-05-16T16:22:51;11.60;99.90
7174;DHT22;3628;48.654;8.932;2023-05-16T16:25:17;11.80;99.90
7174;DHT22;3628;48.654;8.932;2023-05-16T16:27:43;11.80;99.90
7174;DHT22;3628;48.654;8.932;2023-05-16T16:30:09;11.90;99.90
7174;DHT22;3628;48.654;8.932;2023-05-16T16:32:35;11.80;99.90